Elkhart, Indiana
Current Conditions -  °F | °C
As of 11:53 AM on Friday 28 Nov 2014 (Local Time) from KGSH Reporting Station
Overcast Overcast  
Wind Chill: 12°   Ceiling: 6000
Heat Index: 23°   Visibility: 10mi
Dew Point: 18°   Wind: 12mph
Humidity: 81%   Direction: 190°S
Pressure: 30.25"   Gusts: NA
Location:  41.69°N, 85.97°W
Report Text: KGSH 281653Z AUTO 19010KT 10SM FEW014 BKN060 OVC085 M05/M08 A3025 RMK AO2 SNE34 SLP257 P0000 T10501078
Loading
Personal Weather Stations






























Interactive Weather Map New forecast layout! Learn more

10-Day Weather Forecast

Advertisements
Track Severe Weather on mobile